createdAt,value
2019-02-25T00:00:31.182Z,63.85
2019-02-25T00:03:20.116Z,52.75
2019-02-25T00:06:09.001Z,49.10
2019-02-25T00:08:58.276Z,47.62
2019-02-25T00:11:49.218Z,48.52
2019-02-25T00:14:38.671Z,63.48
2019-02-25T00:17:27.746Z,68.40
2019-02-25T00:20:17.513Z,62.20
2019-02-25T00:23:06.069Z,49.35
2019-02-25T00:25:55.628Z,62.20
2019-02-25T00:28:44.661Z,56.88
2019-02-25T00:31:33.650Z,43.28
2019-02-25T00:34:22.886Z,48.28
2019-02-25T00:37:12.708Z,40.10
2019-02-25T00:40:01.770Z,43.23
2019-02-25T00:42:51.048Z,45.25
2019-02-25T00:45:40.419Z,42.58
2019-02-25T00:48:29.582Z,45.55
2019-02-25T00:51:18.748Z,41.30
2019-02-25T00:54:07.192Z,40.38
2019-02-25T00:56:56.053Z,38.05
2019-02-25T00:59:45.369Z,43.52
2019-02-25T01:02:34.693Z,39.10
2019-02-25T01:05:24.048Z,37.83
2019-02-25T01:08:13.547Z,44.35
2019-02-25T01:11:02.654Z,41.92
2019-02-25T01:13:51.877Z,46.10
2019-02-25T01:16:41.351Z,42.60
2019-02-25T01:19:30.175Z,49.75
2019-02-25T01:22:19.377Z,42.70
2019-02-25T01:25:13.382Z,40.83
2019-02-25T01:28:02.729Z,50.73
2019-02-25T01:30:51.902Z,54.63
2019-02-25T01:33:41.240Z,49.33
2019-02-25T01:36:30.289Z,52.60
2019-02-25T01:39:19.092Z,57.10
2019-02-25T01:42:07.934Z,47.73
2019-02-25T01:44:57.523Z,39.95
2019-02-25T01:47:47.112Z,65.55
2019-02-25T01:50:35.803Z,52.45
2019-02-25T01:53:25.134Z,44.03
2019-02-25T01:56:14.733Z,53.15
2019-02-25T01:59:04.178Z,55.45
2019-02-25T02:01:53.539Z,48.35
2019-02-25T02:04:43.533Z,39.83
2019-02-25T02:07:32.920Z,45.17
2019-02-25T02:10:21.764Z,56.58
2019-02-25T02:13:14.189Z,51.63
2019-02-25T02:16:01.435Z,47.15
2019-02-25T02:18:50.804Z,46.98
2019-02-25T02:21:40.291Z,41.80
2019-02-25T02:24:29.853Z,41.05
2019-02-25T02:27:18.880Z,49.98
2019-02-25T02:30:12.211Z,44.95
2019-02-25T02:33:01.500Z,47.58
2019-02-25T02:35:50.412Z,51.13
2019-02-25T02:38:39.258Z,40.60
2019-02-25T02:41:28.441Z,52.62
2019-02-25T02:44:20.549Z,34.80
2019-02-25T02:47:35.654Z,41.48
2019-02-25T02:50:25.647Z,43.95
2019-02-25T02:53:14.152Z,39.75
2019-02-25T02:56:03.152Z,39.15
2019-02-25T02:58:52.600Z,35.28
2019-02-25T03:01:42.486Z,38.28
2019-02-25T03:04:31.877Z,35.75
2019-02-25T03:07:21.267Z,45.33
2019-02-25T03:10:14.242Z,34.40
2019-02-25T03:13:03.375Z,39.98
2019-02-25T03:15:52.549Z,33.00
2019-02-25T03:18:41.478Z,44.83
2019-02-25T03:21:30.367Z,40.03
2019-02-25T03:24:19.265Z,35.30
2019-02-25T03:27:08.699Z,39.78
2019-02-25T03:29:57.826Z,33.95
2019-02-25T03:32:47.648Z,35.00
2019-02-25T03:35:36.800Z,29.55
2019-02-25T03:38:26.294Z,32.90
2019-02-25T03:41:15.078Z,35.45
2019-02-25T03:44:03.692Z,41.05
2019-02-25T03:46:52.874Z,30.23
2019-02-25T03:49:41.973Z,33.40
2019-02-25T03:52:31.612Z,36.45
2019-02-25T03:55:21.631Z,30.52
2019-02-25T03:58:10.868Z,37.63
2019-02-25T04:01:00.234Z,36.17
2019-02-25T04:03:49.515Z,37.45
2019-02-25T04:06:39.137Z,36.70
2019-02-25T04:09:29.075Z,34.78
2019-02-25T04:12:17.679Z,35.80
2019-02-25T04:15:19.956Z,35.98
2019-02-25T04:18:08.660Z,30.62
2019-02-25T04:20:57.385Z,37.75
2019-02-25T04:23:46.914Z,32.45
2019-02-25T04:26:35.528Z,38.45
2019-02-25T04:29:24.707Z,39.73
2019-02-25T04:32:14.160Z,40.67
2019-02-25T04:35:03.452Z,31.65
2019-02-25T04:37:52.616Z,36.42
2019-02-25T04:40:42.034Z,35.08
2019-02-25T04:43:30.622Z,41.02
2019-02-25T04:46:19.715Z,43.90
2019-02-25T04:49:08.502Z,34.58
2019-02-25T04:51:57.639Z,33.05
2019-02-25T04:54:47.133Z,36.17
2019-02-25T04:57:36.691Z,31.00
2019-02-25T05:00:27.126Z,33.25
2019-02-25T05:03:16.178Z,36.08
2019-02-25T05:06:06.033Z,37.93
2019-02-25T05:08:55.328Z,34.03
2019-02-25T05:11:45.080Z,29.82
2019-02-25T05:14:34.153Z,42.35
2019-02-25T05:17:23.009Z,29.60
2019-02-25T05:20:11.581Z,31.45
2019-02-25T05:23:00.671Z,32.65
2019-02-25T05:25:49.744Z,30.95
2019-02-25T05:28:39.580Z,30.08
2019-02-25T05:31:28.260Z,28.77
2019-02-25T05:34:17.702Z,31.10
2019-02-25T05:37:06.151Z,27.65
2019-02-25T05:39:55.626Z,29.87
2019-02-25T05:42:44.995Z,30.52
2019-02-25T05:45:33.939Z,29.75
2019-02-25T05:48:23.228Z,28.07
2019-02-25T05:51:12.289Z,37.20
2019-02-25T05:54:01.556Z,35.33
2019-02-25T05:56:50.885Z,29.70
2019-02-25T05:59:40.309Z,30.77
2019-02-25T06:02:29.879Z,37.63
2019-02-25T06:05:19.357Z,31.62
2019-02-25T06:08:08.612Z,33.35
2019-02-25T06:10:57.791Z,31.60
2019-02-25T06:13:46.865Z,32.23
2019-02-25T06:16:36.027Z,36.00
2019-02-25T06:19:25.167Z,37.78
2019-02-25T06:22:14.158Z,35.43
2019-02-25T06:25:03.628Z,35.68
2019-02-25T06:27:53.288Z,33.25
2019-02-25T06:30:42.504Z,41.05
2019-02-25T06:33:31.617Z,36.13
2019-02-25T06:36:21.152Z,39.78
2019-02-25T06:39:10.503Z,40.30
2019-02-25T06:41:59.758Z,37.08
2019-02-25T06:44:48.825Z,39.65
2019-02-25T06:47:38.396Z,32.13
2019-02-25T06:50:27.481Z,35.08
2019-02-25T06:53:16.848Z,34.25
2019-02-25T06:56:06.135Z,34.92
2019-02-25T06:58:55.470Z,38.15
2019-02-25T07:01:44.747Z,33.98
2019-02-25T07:04:38.719Z,32.05
2019-02-25T07:07:32.287Z,33.23
2019-02-25T07:10:22.375Z,38.73
2019-02-25T07:13:16.051Z,33.35
2019-02-25T07:16:18.962Z,31.80
2019-02-25T07:19:18.640Z,33.90
2019-02-25T07:22:20.712Z,32.38
2019-02-25T07:25:14.192Z,42.38
2019-02-25T07:28:07.851Z,41.85
2019-02-25T07:31:15.114Z,31.60
2019-02-25T07:34:23.245Z,36.68
2019-02-25T07:37:19.266Z,31.70
2019-02-25T07:40:20.318Z,33.80
2019-02-25T07:43:15.624Z,40.28
2019-02-25T07:46:06.796Z,39.95
2019-02-25T07:49:13.325Z,38.20
2019-02-25T07:52:03.801Z,42.58
2019-02-25T07:54:52.801Z,40.55
2019-02-25T07:57:43.888Z,38.23
2019-02-25T08:00:33.083Z,37.73
2019-02-25T08:03:39.669Z,42.67
2019-02-25T08:06:30.422Z,39.63
2019-02-25T08:09:21.186Z,33.70
2019-02-25T08:12:10.435Z,45.58
2019-02-25T08:15:03.312Z,40.70
2019-02-25T08:18:10.206Z,38.58
2019-02-25T08:21:17.706Z,40.95
2019-02-25T08:24:17.481Z,41.40
2019-02-25T08:27:18.003Z,41.95
2019-02-25T08:30:13.576Z,35.10
2019-02-25T08:33:20.027Z,32.75
2019-02-25T08:36:24.010Z,35.20
2019-02-25T08:39:15.354Z,33.95
2019-02-25T08:42:11.953Z,36.80
2019-02-25T08:45:02.660Z,43.17
2019-02-25T08:47:53.317Z,42.15
2019-02-25T08:50:42.346Z,35.08
2019-02-25T08:53:31.623Z,36.75
2019-02-25T08:56:20.720Z,33.70
2019-02-25T08:59:09.957Z,36.23
2019-02-25T09:01:58.680Z,40.50
2019-02-25T09:04:49.311Z,36.17
2019-02-25T09:07:38.858Z,33.73
2019-02-25T09:10:28.260Z,43.90
2019-02-25T09:13:17.562Z,39.10
2019-02-25T09:16:06.894Z,43.60
2019-02-25T09:18:57.907Z,38.42
2019-02-25T09:21:47.592Z,44.42
2019-02-25T09:24:36.512Z,41.28
2019-02-25T09:27:25.764Z,39.35
2019-02-25T09:30:20.173Z,33.60
2019-02-25T09:33:09.680Z,38.83
2019-02-25T09:35:59.059Z,38.08
2019-02-25T09:38:47.672Z,36.63
2019-02-25T09:41:37.086Z,44.33
2019-02-25T09:44:27.192Z,42.98
2019-02-25T09:47:16.447Z,36.00
2019-02-25T09:50:10.713Z,37.03
2019-02-25T09:52:59.690Z,38.98
2019-02-25T09:55:48.747Z,45.33
2019-02-25T09:58:38.597Z,41.15
2019-02-25T10:01:27.378Z,37.90
2019-02-25T10:04:16.053Z,47.50
2019-02-25T10:07:04.980Z,40.63
2019-02-25T10:09:54.389Z,42.55
2019-02-25T10:12:44.063Z,60.67
2019-02-25T10:15:33.426Z,44.15
2019-02-25T10:18:22.707Z,54.55
2019-02-25T10:21:11.756Z,54.55
2019-02-25T10:24:00.949Z,42.40
2019-02-25T10:26:50.001Z,60.75
2019-02-25T10:29:38.719Z,45.05
2019-02-25T10:32:28.557Z,51.05
2019-02-25T10:35:24.869Z,50.67
2019-02-25T10:38:14.537Z,43.02
2019-02-25T10:41:04.146Z,38.65
2019-02-25T10:43:53.709Z,33.05
2019-02-25T10:46:44.823Z,41.70
2019-02-25T10:49:34.007Z,48.02
2019-02-25T10:52:23.049Z,45.40
2019-02-25T10:55:44.353Z,38.38
2019-02-25T10:58:33.529Z,44.08
2019-02-25T11:01:24.557Z,47.48
2019-02-25T11:04:12.754Z,63.98
2019-02-25T11:07:03.509Z,32.40
2019-02-25T11:09:54.950Z,41.05
2019-02-25T11:12:44.443Z,40.83
2019-02-25T11:15:36.902Z,38.42
2019-02-25T11:18:26.726Z,41.18
2019-02-25T11:21:17.024Z,44.18
2019-02-25T11:24:06.390Z,36.77
2019-02-25T11:26:56.966Z,40.20
2019-02-25T11:29:48.353Z,43.68
2019-02-25T11:32:37.163Z,46.30
2019-02-25T11:35:26.429Z,39.13
2019-02-25T11:38:15.807Z,33.40
2019-02-25T11:41:07.083Z,35.98
2019-02-25T11:43:55.812Z,36.83
2019-02-25T11:46:44.817Z,36.30
2019-02-25T11:49:34.314Z,55.52
2019-02-25T11:52:23.586Z,36.73
2019-02-25T11:55:16.987Z,41.08
2019-02-25T11:58:06.391Z,44.95
2019-02-25T12:00:55.475Z,36.58
2019-02-25T12:03:44.849Z,36.90
2019-02-25T12:06:33.505Z,33.88
2019-02-25T12:09:22.891Z,41.98
2019-02-25T12:12:11.893Z,40.58
2019-02-25T12:15:01.432Z,39.83
2019-02-25T12:17:50.598Z,33.20
2019-02-25T12:20:39.432Z,39.30
2019-02-25T12:23:28.418Z,34.45
2019-02-25T12:26:17.878Z,31.23
2019-02-25T12:29:10.826Z,33.05
2019-02-25T12:31:58.455Z,34.20
2019-02-25T12:34:47.854Z,31.05
2019-02-25T12:37:36.800Z,34.48
2019-02-25T12:40:26.286Z,36.75
2019-02-25T12:43:15.636Z,28.55
2019-02-25T12:46:05.235Z,28.12
2019-02-25T12:48:54.166Z,29.42
2019-02-25T12:51:43.157Z,29.72
2019-02-25T16:37:37.680Z,47.40
2019-02-25T16:40:28.702Z,33.65
2019-02-25T16:43:18.957Z,35.65
2019-02-25T17:08:44.184Z,45.52
2019-02-25T17:11:34.838Z,42.73
2019-02-25T17:14:25.648Z,41.10
2019-02-25T17:17:15.471Z,47.90
2019-02-25T17:20:13.128Z,61.23
2019-02-25T17:23:01.903Z,46.02
2019-02-25T17:25:51.232Z,43.15
2019-02-25T17:28:40.333Z,55.85
2019-02-25T17:31:30.623Z,46.33
2019-02-25T17:34:21.132Z,58.80
2019-02-25T17:37:12.489Z,68.50
2019-02-25T17:40:04.394Z,40.38
2019-02-25T17:42:54.060Z,48.83
2019-02-25T17:45:43.206Z,59.77
2019-02-25T17:48:32.510Z,40.45
2019-02-25T17:51:22.659Z,35.08
2019-02-25T17:54:12.500Z,40.75
2019-02-25T17:57:04.901Z,56.45
2019-02-25T17:59:54.881Z,44.50
2019-02-25T18:02:44.161Z,38.75
2019-02-25T18:05:35.394Z,40.00
2019-02-25T18:08:24.440Z,42.85
2019-02-25T18:11:15.609Z,42.95
2019-02-25T18:14:04.718Z,48.83
2019-02-25T18:16:53.947Z,43.87
2019-02-25T18:19:45.705Z,62.33
2019-02-25T18:22:34.882Z,46.70
2019-02-25T18:25:24.409Z,70.47
2019-02-25T18:28:15.152Z,56.13
2019-02-25T18:31:09.170Z,48.25
2019-02-25T18:33:56.269Z,58.50
2019-02-25T18:36:46.739Z,64.05
2019-02-25T18:39:35.900Z,46.68
2019-02-25T18:42:25.199Z,74.30
2019-02-25T18:45:20.780Z,44.90
2019-02-25T18:48:10.291Z,41.85
2019-02-25T18:51:01.160Z,43.73
2019-02-25T18:53:50.164Z,65.57
2019-02-25T18:56:40.390Z,49.48
2019-02-25T18:59:30.649Z,58.60
2019-02-25T19:02:20.205Z,84.65
2019-02-25T19:05:13.626Z,50.73
2019-02-25T19:08:00.202Z,53.38
2019-02-25T19:10:51.152Z,76.65
2019-02-25T19:13:39.755Z,42.48
2019-02-25T19:16:28.972Z,45.40
2019-02-25T19:19:19.246Z,46.48
2019-02-25T19:22:10.666Z,39.13
2019-02-25T19:25:00.038Z,40.00
2019-02-25T19:27:50.108Z,42.53
2019-02-25T19:30:39.708Z,49.63
2019-02-25T19:33:31.157Z,45.12
2019-02-25T19:36:19.525Z,50.05
2019-02-25T19:39:14.228Z,49.15
2019-02-25T19:42:02.898Z,45.50
2019-02-25T19:44:51.863Z,44.45
2019-02-25T19:47:43.117Z,59.13
2019-02-25T19:50:32.863Z,51.92
2019-02-25T19:53:22.136Z,48.63
2019-02-25T19:56:11.179Z,50.70
2019-02-25T19:59:01.308Z,53.90
2019-02-25T20:01:51.318Z,57.93
2019-02-25T20:04:42.256Z,75.80
2019-02-25T20:07:33.266Z,52.70
2019-02-25T20:10:22.245Z,46.80
2019-02-25T20:13:11.319Z,45.52
2019-02-25T20:16:07.608Z,52.38
2019-02-25T20:18:53.699Z,45.80
2019-02-25T20:21:42.463Z,47.73
2019-02-25T20:24:32.488Z,48.02
2019-02-25T20:27:21.715Z,47.85
2019-02-25T20:30:19.263Z,67.05
2019-02-25T20:33:10.759Z,52.62
2019-02-25T20:36:01.316Z,51.53
2019-02-25T20:38:49.580Z,51.92
2019-02-25T20:41:38.767Z,54.93
2019-02-25T20:44:30.523Z,48.58
2019-02-25T20:47:19.131Z,49.08
2019-02-25T20:50:15.510Z,49.90
2019-02-25T20:53:06.521Z,55.35
2019-02-25T20:55:56.725Z,47.50
2019-02-25T20:58:47.378Z,51.50
2019-02-25T21:01:39.567Z,51.80
2019-02-25T21:04:27.826Z,54.75
2019-02-25T21:07:16.804Z,55.08
2019-02-25T21:10:17.276Z,47.75
2019-02-25T21:13:06.723Z,48.75
2019-02-25T21:15:58.222Z,69.92
2019-02-25T21:18:48.691Z,49.60
2019-02-25T21:21:38.984Z,50.20
2019-02-25T21:24:33.294Z,45.48
2019-02-25T21:27:26.180Z,50.95
2019-02-25T21:30:22.048Z,59.53
2019-02-25T21:33:13.299Z,53.87
2019-02-25T21:36:01.672Z,71.65
2019-02-25T21:38:51.610Z,64.15
2019-02-25T21:41:41.768Z,57.10
2019-02-25T21:44:31.550Z,54.50
2019-02-25T21:47:22.427Z,49.53
2019-02-25T21:50:19.856Z,53.80
2019-02-25T21:53:09.376Z,81.90
2019-02-25T21:56:02.962Z,55.43
2019-02-25T21:58:50.978Z,63.85
2019-02-25T22:01:41.105Z,59.03
2019-02-25T22:04:32.307Z,72.85
2019-02-25T22:07:24.996Z,60.33
2019-02-25T22:10:17.088Z,51.98
2019-02-25T22:13:08.794Z,62.35
2019-02-25T22:15:58.977Z,69.95
2019-02-25T22:18:48.360Z,78.20
2019-02-25T22:21:37.879Z,60.50
2019-02-25T22:24:29.077Z,72.55
2019-02-25T22:27:18.474Z,66.67
2019-02-25T22:30:17.113Z,59.65
2019-02-25T22:33:07.869Z,61.85
2019-02-25T22:35:56.617Z,63.13
2019-02-25T22:38:46.386Z,93.33
2019-02-25T22:41:35.674Z,57.35
2019-02-25T22:44:26.839Z,60.08
2019-02-25T22:47:17.835Z,65.78
2019-02-25T22:50:12.787Z,56.95
2019-02-25T22:53:03.643Z,70.30
2019-02-25T22:55:52.335Z,67.42
2019-02-25T22:58:42.991Z,73.28
2019-02-25T23:01:32.396Z,67.90
2019-02-25T23:04:24.211Z,59.08
2019-02-25T23:07:15.096Z,73.35
2019-02-25T23:10:06.502Z,64.62
2019-02-25T23:12:56.071Z,55.88
2019-02-25T23:15:46.672Z,59.15
2019-02-25T23:18:35.939Z,77.37
2019-02-25T23:21:26.968Z,63.17
2019-02-25T23:24:15.741Z,84.72
2019-02-25T23:27:05.175Z,78.37
2019-02-25T23:29:54.445Z,74.82
2019-02-25T23:32:44.026Z,64.40
2019-02-25T23:35:33.035Z,78.57
2019-02-25T23:38:21.898Z,60.73
2019-02-25T23:41:12.798Z,59.58
2019-02-25T23:44:01.482Z,74.00
2019-02-25T23:46:55.274Z,80.07
2019-02-25T23:49:43.709Z,62.15
2019-02-25T23:52:33.646Z,70.85
2019-02-25T23:55:24.938Z,61.23
2019-02-25T23:58:14.793Z,66.00
